createdAt,value
2018-11-11T00:02:15.587Z,90.27
2018-11-11T00:04:48.547Z,90.45
2018-11-11T00:07:21.522Z,90.60
2018-11-11T00:09:54.171Z,90.62
2018-11-11T00:12:27.867Z,90.64
2018-11-11T00:15:00.536Z,90.76
2018-11-11T00:17:35.638Z,90.93
2018-11-11T00:20:10.551Z,91.13
2018-11-11T00:22:43.273Z,91.40
2018-11-11T00:25:16.005Z,91.26
2018-11-11T00:27:50.161Z,91.13
2018-11-11T00:30:24.085Z,91.16
2018-11-11T00:32:57.371Z,91.23
2018-11-11T00:35:31.763Z,91.24
2018-11-11T00:38:04.761Z,91.34
2018-11-11T00:40:37.392Z,91.41
2018-11-11T00:43:11.923Z,91.46
2018-11-11T00:45:45.841Z,91.35
2018-11-11T00:48:19.665Z,91.15
2018-11-11T00:50:58.764Z,91.09
2018-11-11T00:53:33.045Z,91.04
2018-11-11T00:56:08.980Z,91.00
2018-11-11T00:58:44.893Z,90.92
2018-11-11T01:01:18.062Z,90.74
2018-11-11T01:03:51.640Z,90.39
2018-11-11T01:06:24.308Z,90.14
2018-11-11T01:08:58.278Z,90.03
2018-11-11T01:11:31.880Z,89.87
2018-11-11T01:14:04.459Z,89.82
2018-11-11T01:16:37.389Z,89.93
2018-11-11T01:19:10.484Z,89.99
2018-11-11T01:21:43.117Z,89.87
2018-11-11T01:24:15.690Z,89.55
2018-11-11T01:26:49.666Z,89.31
2018-11-11T01:29:22.464Z,89.11
2018-11-11T01:31:55.901Z,89.12
2018-11-11T01:34:29.322Z,89.11
2018-11-11T01:37:02.855Z,89.00
2018-11-11T01:39:35.406Z,88.63
2018-11-11T01:42:09.533Z,88.42
2018-11-11T01:44:42.202Z,88.30
2018-11-11T01:47:14.748Z,88.10
2018-11-11T01:49:51.187Z,88.16
2018-11-11T01:52:25.649Z,88.21
2018-11-11T01:55:03.162Z,88.49
2018-11-11T01:57:37.593Z,88.61
2018-11-11T02:00:16.178Z,88.61
2018-11-11T02:02:49.517Z,88.49
2018-11-11T02:05:23.570Z,88.45
2018-11-11T02:07:56.281Z,88.25
2018-11-11T02:10:30.524Z,88.05
2018-11-11T02:13:03.555Z,87.88
2018-11-11T02:15:36.988Z,87.93
2018-11-11T02:18:09.721Z,87.47
2018-11-11T02:20:43.638Z,87.08
2018-11-11T02:23:17.075Z,86.92
2018-11-11T02:25:50.406Z,86.91
2018-11-11T02:28:23.631Z,86.71
2018-11-11T02:30:57.106Z,86.36
2018-11-11T02:33:29.977Z,86.22
2018-11-11T02:36:06.205Z,86.29
2018-11-11T02:38:45.002Z,86.11
2018-11-11T02:41:21.249Z,86.01
2018-11-11T02:43:54.787Z,85.64
2018-11-11T02:46:28.114Z,85.61
2018-11-11T02:49:00.791Z,85.46
2018-11-11T02:51:35.598Z,85.41
2018-11-11T02:54:08.176Z,85.23
2018-11-11T02:56:40.782Z,85.07
2018-11-11T02:59:15.926Z,85.08
2018-11-11T03:01:48.623Z,84.84
2018-11-11T03:04:22.049Z,84.60
2018-11-11T03:06:55.006Z,84.67
2018-11-11T03:09:30.477Z,84.42
2018-11-11T03:12:03.856Z,84.21
2018-11-11T03:14:37.705Z,84.02
2018-11-11T03:17:10.443Z,83.73
2018-11-11T03:19:43.190Z,83.89
2018-11-11T03:22:16.122Z,83.77
2018-11-11T03:24:48.735Z,83.84
2018-11-11T03:27:25.605Z,83.53
2018-11-11T03:29:58.731Z,83.51
2018-11-11T03:32:31.574Z,83.21
2018-11-11T03:35:06.001Z,83.12
2018-11-11T03:37:38.902Z,83.13
2018-11-11T03:40:15.110Z,83.05
2018-11-11T03:42:48.085Z,83.07
2018-11-11T03:45:21.710Z,82.88
2018-11-11T03:47:55.020Z,82.77
2018-11-11T03:50:29.057Z,82.60
2018-11-11T03:53:02.215Z,82.62
2018-11-11T03:55:36.640Z,82.37
2018-11-11T03:58:10.478Z,82.44
2018-11-11T04:00:47.377Z,82.83
2018-11-11T04:03:19.906Z,83.19
2018-11-11T04:05:53.937Z,83.66
2018-11-11T04:08:27.316Z,84.05
2018-11-11T04:10:59.879Z,84.05
2018-11-11T04:13:32.726Z,83.93
2018-11-11T04:16:08.432Z,83.79
2018-11-11T04:18:40.917Z,83.63
2018-11-11T04:21:15.252Z,83.44
2018-11-11T04:23:49.133Z,83.17
2018-11-11T04:26:21.989Z,83.06
2018-11-11T04:28:54.521Z,82.82
2018-11-11T04:31:27.532Z,82.63
2018-11-11T04:34:00.233Z,82.49
2018-11-11T04:36:32.833Z,82.32
2018-11-11T04:39:11.176Z,82.44
2018-11-11T04:41:44.783Z,82.75
2018-11-11T04:44:17.349Z,82.79
2018-11-11T04:46:51.581Z,82.60
2018-11-11T04:49:24.822Z,82.26
2018-11-11T04:51:57.626Z,82.22
2018-11-11T04:54:32.032Z,82.15
2018-11-11T04:57:06.137Z,82.04
2018-11-11T04:59:38.795Z,81.89
2018-11-11T05:02:12.984Z,81.95
2018-11-11T05:04:57.574Z,82.09
2018-11-11T05:07:30.237Z,82.24
2018-11-11T05:10:05.923Z,82.26
2018-11-11T05:12:38.478Z,82.22
2018-11-11T05:15:14.851Z,82.06
2018-11-11T05:17:48.154Z,81.72
2018-11-11T05:20:20.737Z,81.60
2018-11-11T05:22:53.474Z,81.42
2018-11-11T05:25:26.276Z,81.20
2018-11-11T05:27:59.567Z,81.28
2018-11-11T05:30:32.130Z,81.26
2018-11-11T05:33:04.942Z,81.20
2018-11-11T05:35:37.709Z,81.17
2018-11-11T05:38:10.759Z,81.14
2018-11-11T05:40:43.533Z,81.09
2018-11-11T05:43:16.649Z,81.09
2018-11-11T05:45:49.937Z,80.87
2018-11-11T05:48:24.562Z,80.99
2018-11-11T05:50:57.166Z,81.22
2018-11-11T05:53:29.690Z,81.22
2018-11-11T05:56:02.845Z,81.32
2018-11-11T05:58:36.337Z,81.45
2018-11-11T06:01:11.871Z,81.46
2018-11-11T06:03:49.994Z,81.31
2018-11-11T06:06:22.717Z,81.06
2018-11-11T06:08:55.614Z,80.98
2018-11-11T06:11:28.234Z,81.11
2018-11-11T06:14:00.779Z,81.08
2018-11-11T06:16:33.806Z,80.89
2018-11-11T06:19:06.766Z,81.02
2018-11-11T06:21:39.302Z,81.27
2018-11-11T06:24:12.381Z,81.25
2018-11-11T06:26:45.124Z,81.12
2018-11-11T06:29:18.266Z,80.95
2018-11-11T06:31:51.025Z,80.95
2018-11-11T06:34:24.556Z,80.57
2018-11-11T06:36:57.297Z,80.26
2018-11-11T06:39:31.343Z,79.99
2018-11-11T06:42:04.410Z,80.11
2018-11-11T06:44:37.125Z,79.96
2018-11-11T06:47:11.054Z,79.58
2018-11-11T06:49:45.574Z,79.37
2018-11-11T06:52:18.348Z,79.13
2018-11-11T06:54:55.669Z,79.08
2018-11-11T06:57:28.204Z,78.97
2018-11-11T07:00:06.144Z,79.16
2018-11-11T07:02:39.728Z,79.39
2018-11-11T07:05:13.696Z,79.25
2018-11-11T07:07:47.669Z,79.19
2018-11-11T07:10:20.701Z,78.84
2018-11-11T07:12:55.329Z,78.50
2018-11-11T07:15:28.694Z,78.34
2018-11-11T07:18:01.798Z,78.20
2018-11-11T07:20:35.078Z,78.29
2018-11-11T07:23:07.933Z,77.96
2018-11-11T07:25:40.913Z,77.44
2018-11-11T07:28:15.712Z,77.07
2018-11-11T07:30:48.431Z,77.13
2018-11-11T07:33:21.046Z,77.03
2018-11-11T07:35:58.859Z,76.93
2018-11-11T07:38:42.019Z,76.92
2018-11-11T07:41:16.887Z,77.65
2018-11-11T07:43:51.275Z,78.62
2018-11-11T07:46:26.339Z,79.70
2018-11-11T07:48:59.777Z,80.74
2018-11-11T07:51:35.286Z,81.41
2018-11-11T07:54:08.183Z,81.53
2018-11-11T07:56:41.416Z,81.11
2018-11-11T07:59:15.490Z,80.89
2018-11-11T08:01:50.610Z,81.11
2018-11-11T08:04:23.395Z,80.68
2018-11-11T08:06:57.585Z,80.42
2018-11-11T08:09:42.756Z,80.07
2018-11-11T08:12:16.629Z,79.50
2018-11-11T08:14:55.719Z,79.12
2018-11-11T08:17:31.591Z,78.56
2018-11-11T08:20:05.250Z,77.93
2018-11-11T08:22:45.565Z,77.71
2018-11-11T08:25:22.268Z,77.53
2018-11-11T08:27:58.614Z,77.45
2018-11-11T08:30:32.555Z,77.17
2018-11-11T08:33:05.978Z,77.11
2018-11-11T08:35:39.928Z,76.72
2018-11-11T08:38:13.688Z,76.54
2018-11-11T08:40:48.333Z,76.61
2018-11-11T08:43:27.334Z,76.49
2018-11-11T08:46:02.819Z,76.37
2018-11-11T08:48:38.497Z,76.19
2018-11-11T08:51:12.050Z,75.94
2018-11-11T08:53:45.675Z,76.11
2018-11-11T08:56:25.139Z,76.40
2018-11-11T08:59:04.170Z,76.50
2018-11-11T09:01:52.812Z,76.66
2018-11-11T09:04:44.954Z,76.63
2018-11-11T09:07:21.115Z,76.29
2018-11-11T09:09:55.387Z,75.81
2018-11-11T09:12:29.203Z,74.74
2018-11-11T09:15:14.818Z,74.53
2018-11-11T09:17:54.184Z,74.00
2018-11-11T09:20:34.916Z,73.30
2018-11-11T09:23:11.561Z,73.20
2018-11-11T09:25:46.643Z,73.40
2018-11-11T09:28:19.977Z,73.67
2018-11-11T09:30:55.122Z,73.16
2018-11-11T09:33:31.836Z,72.50
2018-11-11T09:36:06.417Z,72.15
2018-11-11T09:38:41.868Z,71.80
2018-11-11T09:41:18.850Z,71.12
2018-11-11T09:43:58.873Z,71.08
2018-11-11T09:46:49.185Z,70.82
2018-11-11T09:49:31.235Z,70.71
2018-11-11T09:52:08.323Z,71.13
2018-11-11T09:54:42.073Z,69.42
2018-11-11T09:57:19.657Z,67.04
2018-11-11T09:59:53.276Z,67.12
2018-11-11T10:02:30.746Z,66.78
2018-11-11T10:05:16.479Z,67.37
2018-11-11T10:08:10.632Z,67.44
2018-11-11T10:11:07.069Z,67.53
2018-11-11T10:13:49.878Z,67.70
2018-11-11T10:16:29.696Z,68.02
2018-11-11T10:19:19.108Z,68.18
2018-11-11T10:22:03.774Z,67.71
2018-11-11T10:24:50.689Z,67.52
2018-11-11T10:27:56.238Z,67.61
2018-11-11T10:30:57.793Z,67.43
2018-11-11T10:33:41.750Z,67.32
2018-11-11T10:36:33.276Z,65.73
2018-11-11T10:39:36.712Z,65.41
2018-11-11T10:42:16.521Z,65.61
2018-11-11T10:45:08.907Z,65.22
2018-11-11T10:48:01.992Z,64.47
2018-11-11T10:51:01.974Z,62.81
2018-11-11T10:53:43.203Z,63.05
2018-11-11T10:56:18.215Z,62.96
2018-11-11T10:58:52.486Z,63.06
2018-11-11T11:01:51.651Z,63.98
2018-11-11T11:04:56.282Z,63.96
2018-11-11T11:07:30.469Z,64.46
2018-11-11T11:10:03.906Z,64.78
2018-11-11T11:12:38.599Z,64.53
2018-11-11T11:15:17.469Z,64.76
2018-11-11T11:17:51.376Z,64.66
2018-11-11T11:20:28.560Z,64.52
2018-11-11T11:23:02.842Z,63.95
2018-11-11T11:25:42.736Z,64.10
2018-11-11T11:28:22.523Z,63.91
2018-11-11T11:30:59.022Z,62.75
2018-11-11T11:33:38.020Z,62.68
2018-11-11T11:36:11.761Z,62.68
2018-11-11T11:38:45.624Z,62.92
2018-11-11T11:41:18.487Z,62.80
2018-11-11T11:44:01.937Z,63.15
2018-11-11T11:46:36.328Z,63.43
2018-11-11T11:49:12.759Z,63.58
2018-11-11T11:51:56.058Z,63.55
2018-11-11T11:54:34.860Z,63.76
2018-11-11T11:57:09.228Z,64.18
2018-11-11T11:59:46.417Z,64.61
2018-11-11T12:02:22.395Z,64.70
2018-11-11T12:04:56.110Z,65.25
2018-11-11T12:07:30.604Z,65.43
2018-11-11T12:10:07.810Z,65.37
2018-11-11T12:12:47.068Z,65.59
2018-11-11T12:15:25.760Z,65.86
2018-11-11T12:18:03.987Z,65.74
2018-11-11T12:20:38.719Z,65.18
2018-11-11T12:23:15.181Z,65.08
2018-11-11T12:25:52.782Z,65.21
2018-11-11T12:28:37.249Z,65.24
2018-11-11T12:31:13.811Z,65.41
2018-11-11T12:33:48.022Z,65.85
2018-11-11T12:36:41.240Z,66.05
2018-11-11T12:39:18.469Z,66.42
2018-11-11T12:41:54.865Z,66.58
2018-11-11T12:44:47.729Z,66.63
2018-11-11T12:47:32.110Z,66.77
2018-11-11T12:50:14.423Z,66.81
2018-11-11T12:53:04.963Z,67.22
2018-11-11T12:55:52.309Z,67.64
2018-11-11T12:58:35.281Z,67.94
2018-11-11T13:01:12.861Z,69.34
2018-11-11T13:03:57.448Z,71.57
2018-11-11T13:06:36.848Z,73.29
2018-11-11T13:09:24.597Z,75.99
2018-11-11T13:12:06.221Z,77.19
2018-11-11T13:15:05.046Z,78.57
2018-11-11T13:17:52.808Z,80.00
2018-11-11T13:20:29.585Z,80.81
2018-11-11T13:23:08.494Z,82.08
2018-11-11T13:25:45.286Z,82.65
2018-11-11T13:28:27.203Z,83.05
2018-11-11T13:31:17.125Z,83.32
2018-11-11T13:33:53.108Z,84.42
2018-11-11T13:36:35.095Z,84.98
2018-11-11T13:39:16.182Z,85.55
2018-11-11T13:41:54.434Z,86.40
2018-11-11T13:44:30.643Z,86.83
2018-11-11T13:47:13.926Z,87.37
2018-11-11T13:49:52.363Z,87.93
2018-11-11T13:52:25.512Z,88.60
2018-11-11T13:54:59.837Z,89.06
2018-11-11T13:57:36.335Z,89.58
2018-11-11T14:00:25.886Z,89.77
2018-11-11T14:03:05.141Z,90.18
2018-11-11T14:05:58.105Z,90.61
2018-11-11T14:08:31.815Z,91.00
2018-11-11T14:11:09.387Z,91.47
2018-11-11T14:13:44.556Z,91.42
2018-11-11T14:16:21.394Z,91.19
2018-11-11T14:18:55.627Z,91.01
2018-11-11T14:21:30.733Z,91.63
2018-11-11T14:24:10.896Z,91.68
2018-11-11T14:27:01.771Z,92.08
2018-11-11T14:29:40.666Z,91.73
2018-11-11T14:32:16.501Z,92.26
2018-11-11T14:34:57.095Z,92.48
2018-11-11T14:37:33.433Z,92.72
2018-11-11T14:40:22.230Z,92.97
2018-11-11T14:43:01.041Z,93.09
2018-11-11T14:45:36.734Z,93.18
2018-11-11T14:48:16.274Z,93.38
2018-11-11T14:50:56.160Z,93.47
2018-11-11T14:53:30.431Z,93.67
2018-11-11T14:56:04.990Z,93.87
2018-11-11T14:58:43.865Z,93.93
2018-11-11T15:01:24.942Z,94.13
2018-11-11T15:04:00.804Z,94.32
2018-11-11T15:06:53.375Z,94.44
2018-11-11T15:09:26.230Z,94.56
2018-11-11T15:12:04.009Z,94.64
2018-11-11T15:14:41.466Z,94.81
2018-11-11T15:17:20.828Z,94.91
2018-11-11T15:19:58.206Z,95.19
2018-11-11T15:22:33.421Z,95.28
2018-11-11T15:25:12.679Z,95.38
2018-11-11T15:28:05.170Z,95.49
2018-11-11T15:30:44.234Z,95.43
2018-11-11T15:33:20.922Z,95.40
2018-11-11T15:36:05.634Z,95.44
2018-11-11T15:38:43.868Z,95.43
2018-11-11T15:41:21.345Z,95.40
2018-11-11T15:44:01.658Z,95.37
2018-11-11T15:46:48.497Z,95.43
2018-11-11T15:49:28.887Z,95.37
2018-11-11T15:52:05.223Z,95.32
2018-11-11T15:54:39.004Z,95.25
2018-11-11T15:57:17.733Z,94.97
2018-11-11T15:59:56.785Z,94.69
2018-11-11T16:02:40.374Z,94.42
2018-11-11T16:05:34.942Z,94.06
2018-11-11T16:08:29.445Z,93.80
2018-11-11T16:11:08.445Z,93.17
2018-11-11T16:13:53.383Z,92.92
2018-11-11T16:16:39.545Z,92.89
2018-11-11T16:19:36.761Z,92.92
2018-11-11T16:22:23.412Z,92.66
2018-11-11T16:25:00.543Z,92.62
2018-11-11T16:27:54.693Z,92.18
2018-11-11T16:30:47.115Z,91.96
2018-11-11T16:37:27.110Z,91.65
2018-11-11T16:40:09.137Z,91.31
2018-11-11T16:42:52.220Z,90.98
2018-11-11T16:45:33.454Z,90.82
2018-11-11T16:48:12.100Z,89.78
2018-11-11T16:50:51.332Z,89.23
2018-11-11T16:53:30.211Z,88.75
2018-11-11T16:56:11.799Z,88.59
2018-11-11T16:58:46.640Z,88.56
2018-11-11T17:01:23.465Z,88.35
2018-11-11T17:03:58.958Z,88.59
2018-11-11T17:06:32.643Z,88.79
2018-11-11T17:09:15.502Z,88.78
2018-11-11T17:11:50.944Z,88.84
2018-11-11T17:14:26.934Z,88.97
2018-11-11T17:17:03.396Z,88.77
2018-11-11T17:19:45.248Z,88.67
2018-11-11T17:22:19.220Z,88.62
2018-11-11T17:24:54.007Z,88.53
2018-11-11T17:27:44.743Z,88.41
2018-11-11T17:31:22.243Z,88.55
2018-11-11T17:34:14.123Z,88.73
2018-11-11T17:37:13.245Z,88.39
2018-11-11T17:39:56.950Z,88.43
2018-11-11T17:42:42.838Z,88.45
2018-11-11T17:45:25.498Z,88.52
2018-11-11T17:48:12.521Z,88.23
2018-11-11T17:51:04.259Z,88.06
2018-11-11T17:53:41.390Z,88.02
2018-11-11T17:59:38.830Z,87.69
2018-11-11T18:02:37.776Z,87.75
2018-11-11T18:05:38.289Z,87.87
2018-11-11T18:08:14.452Z,88.15
2018-11-11T18:10:52.381Z,88.32
2018-11-11T18:13:32.076Z,88.68
2018-11-11T18:16:12.471Z,89.25
2018-11-11T18:18:48.362Z,89.69
2018-11-11T18:21:33.826Z,89.82
2018-11-11T18:24:15.402Z,90.14
2018-11-11T18:26:57.692Z,90.44
2018-11-11T18:29:36.859Z,90.35
2018-11-11T18:32:13.648Z,90.63
2018-11-11T18:34:49.430Z,90.78
2018-11-11T18:37:23.057Z,91.06
2018-11-11T18:40:03.533Z,90.98
2018-11-11T18:42:45.581Z,91.04
2018-11-11T18:45:23.029Z,90.90
2018-11-11T18:47:59.459Z,90.82
2018-11-11T18:50:36.193Z,90.72
2018-11-11T18:53:49.599Z,90.63
2018-11-11T18:56:33.805Z,90.63
2018-11-11T18:59:14.495Z,90.43
2018-11-11T19:01:56.341Z,90.46
2018-11-11T19:04:40.101Z,90.56
2018-11-11T19:07:23.782Z,90.86
2018-11-11T19:10:05.636Z,90.94
2018-11-11T19:12:43.773Z,91.15
2018-11-11T19:15:22.965Z,91.59
2018-11-11T19:18:03.960Z,92.03
2018-11-11T19:20:44.806Z,92.35
2018-11-11T19:23:18.380Z,92.42
2018-11-11T19:26:01.686Z,92.69
2018-11-11T19:28:37.418Z,93.13
2018-11-11T19:31:12.291Z,93.17
2018-11-11T19:33:50.608Z,92.82
2018-11-11T19:36:29.183Z,92.33
2018-11-11T19:39:11.716Z,92.00
2018-11-11T19:41:48.665Z,91.59
2018-11-11T19:44:24.232Z,91.04
2018-11-11T19:47:08.568Z,91.27
2018-11-11T19:49:42.832Z,91.92
2018-11-11T19:52:23.245Z,92.48
2018-11-11T19:55:03.036Z,92.85
2018-11-11T19:57:38.191Z,93.23
2018-11-11T20:00:24.352Z,93.58
2018-11-11T20:02:57.678Z,93.98
2018-11-11T20:05:35.160Z,94.17
2018-11-11T20:08:14.747Z,94.28
2018-11-11T20:10:59.360Z,94.57
2018-11-11T20:13:32.745Z,94.72
2018-11-11T20:16:09.349Z,94.84
2018-11-11T20:18:44.070Z,95.01
2018-11-11T20:21:25.578Z,95.18
2018-11-11T20:24:01.727Z,95.23
2018-11-11T20:26:42.384Z,95.24
2018-11-11T20:29:22.174Z,95.39
2018-11-11T20:31:58.797Z,95.46
2018-11-11T20:34:35.622Z,95.66
2018-11-11T20:37:12.695Z,95.82
2018-11-11T20:39:49.147Z,95.89
2018-11-11T20:42:25.232Z,95.97
2018-11-11T20:45:06.946Z,96.05
2018-11-11T20:47:48.181Z,96.15
2018-11-11T20:50:49.761Z,96.26
2018-11-11T20:53:27.856Z,96.35
2018-11-11T20:56:04.524Z,96.44
2018-11-11T20:58:41.683Z,96.54
2018-11-11T21:01:21.911Z,96.73
2018-11-11T21:03:58.517Z,96.83
2018-11-11T21:06:42.687Z,96.91
2018-11-11T21:09:30.601Z,96.97
2018-11-11T21:12:13.052Z,97.02
2018-11-11T21:14:50.410Z,97.18
2018-11-11T21:17:34.571Z,97.31
2018-11-11T21:20:13.767Z,97.26
2018-11-11T21:22:57.117Z,97.25
2018-11-11T21:25:40.995Z,97.19
2018-11-11T21:28:16.819Z,97.23
2018-11-11T21:31:01.316Z,97.33
2018-11-11T21:33:38.512Z,97.42
2018-11-11T21:36:21.331Z,97.51
2018-11-11T21:39:05.393Z,97.54
2018-11-11T21:41:51.392Z,97.56
2018-11-11T21:44:30.768Z,97.57
2018-11-11T21:47:16.080Z,97.54
2018-11-11T21:50:00.431Z,97.51
2018-11-11T21:52:39.956Z,97.41
2018-11-11T21:55:23.486Z,97.28
2018-11-11T21:58:08.068Z,97.07
2018-11-11T22:00:44.250Z,96.90
2018-11-11T22:03:23.697Z,96.64
2018-11-11T22:06:03.981Z,96.38
2018-11-11T22:08:46.591Z,96.17
2018-11-11T22:11:23.049Z,96.03
2018-11-11T22:14:00.895Z,95.86
2018-11-11T22:16:36.720Z,95.70
2018-11-11T22:19:14.490Z,95.52
2018-11-11T22:21:52.026Z,95.42
2018-11-11T22:24:26.488Z,95.35
2018-11-11T22:27:01.880Z,95.26
2018-11-11T22:30:07.987Z,95.09
2018-11-11T22:32:41.469Z,94.80
2018-11-11T22:35:26.531Z,94.62
2018-11-11T22:38:01.995Z,94.47
2018-11-11T22:40:35.774Z,94.37
2018-11-11T22:43:10.574Z,94.24
2018-11-11T22:45:45.735Z,94.23
2018-11-11T22:48:20.776Z,94.21
2018-11-11T22:50:58.410Z,94.20
2018-11-11T22:53:37.889Z,94.18
2018-11-11T22:56:19.806Z,94.12
2018-11-11T22:58:55.636Z,94.01
2018-11-11T23:01:29.418Z,93.88
2018-11-11T23:04:05.826Z,93.74
2018-11-11T23:06:41.773Z,93.58
2018-11-11T23:09:17.591Z,93.30
2018-11-11T23:11:50.736Z,93.12
2018-11-11T23:14:23.796Z,93.02
2018-11-11T23:16:58.519Z,93.00
2018-11-11T23:19:33.752Z,92.96
2018-11-11T23:22:10.865Z,92.91
2018-11-11T23:24:47.858Z,92.94
2018-11-11T23:27:24.189Z,92.81
2018-11-11T23:30:00.831Z,92.62
2018-11-11T23:32:35.860Z,92.56
2018-11-11T23:35:10.789Z,92.64
2018-11-11T23:37:45.795Z,92.67
2018-11-11T23:40:19.421Z,92.76
2018-11-11T23:42:53.550Z,92.87
2018-11-11T23:45:28.864Z,92.79
2018-11-11T23:48:01.861Z,92.68
2018-11-11T23:50:35.901Z,92.73
2018-11-11T23:53:10.854Z,92.71
2018-11-11T23:55:44.882Z,92.55
2018-11-11T23:58:18.366Z,92.34
